sensor_id;sensor_type;location;lat;lon;timestamp;P1;durP1;ratioP1;P2;durP2;ratioP2
8640;SDS011;4358;42.100;25.222;2022-10-17T12:17:05;2.20;;;2.00;;
8640;SDS011;4358;42.100;25.222;2022-10-17T12:19:52;2.17;;;1.97;;
8640;SDS011;4358;42.100;25.222;2022-10-17T12:22:20;3.37;;;2.00;;
8640;SDS011;4358;42.100;25.222;2022-10-17T12:24:53;2.10;;;1.90;;
8640;SDS011;4358;42.100;25.222;2022-10-17T12:27:29;1.77;;;1.67;;
8640;SDS011;4358;42.100;25.222;2022-10-17T12:30:02;3.00;;;1.80;;
8640;SDS011;4358;42.100;25.222;2022-10-17T12:32:30;2.20;;;1.67;;
8640;SDS011;4358;42.100;25.222;2022-10-17T12:34:58;4.63;;;1.60;;
8640;SDS011;4358;42.100;25.222;2022-10-17T12:40:46;2.00;;;1.60;;
8640;SDS011;4358;42.100;25.222;2022-10-17T12:49:21;3.40;;;1.77;;
8640;SDS011;4358;42.100;25.222;2022-10-17T12:54:51;3.43;;;1.40;;
8640;SDS011;4358;42.100;25.222;2022-10-17T12:57:23;1.60;;;1.50;;
8640;SDS011;4358;42.100;25.222;2022-10-17T12:59:55;1.93;;;1.70;;
8640;SDS011;4358;42.100;25.222;2022-10-17T13:02:23;1.90;;;1.67;;
8640;SDS011;4358;42.100;25.222;2022-10-17T13:04:57;2.60;;;1.60;;
8640;SDS011;4358;42.100;25.222;2022-10-17T13:07:32;2.27;;;1.70;;
8640;SDS011;4358;42.100;25.222;2022-10-17T13:09:59;3.70;;;1.90;;
8640;SDS011;4358;42.100;25.222;2022-10-17T13:12:29;2.00;;;1.80;;
8640;SDS011;4358;42.100;25.222;2022-10-17T13:15:00;2.47;;;1.70;;
8640;SDS011;4358;42.100;25.222;2022-10-17T13:17:31;2.40;;;2.03;;
8640;SDS011;4358;42.100;25.222;2022-10-17T13:20:00;2.50;;;1.80;;
8640;SDS011;4358;42.100;25.222;2022-10-17T13:22:28;3.63;;;1.57;;
8640;SDS011;4358;42.100;25.222;2022-10-17T13:25:07;1.80;;;1.70;;
8640;SDS011;4358;42.100;25.222;2022-10-17T13:27:39;2.93;;;1.70;;
8640;SDS011;4358;42.100;25.222;2022-10-17T13:30:20;2.57;;;1.63;;
8640;SDS011;4358;42.100;25.222;2022-10-17T13:32:49;2.17;;;1.63;;
8640;SDS011;4358;42.100;25.222;2022-10-17T13:35:21;1.63;;;1.53;;
8640;SDS011;4358;42.100;25.222;2022-10-17T13:37:51;1.80;;;1.30;;
8640;SDS011;4358;42.100;25.222;2022-10-17T13:40:21;1.57;;;1.40;;
8640;SDS011;4358;42.100;25.222;2022-10-17T13:42:50;1.63;;;1.50;;
8640;SDS011;4358;42.100;25.222;2022-10-17T13:45:18;1.70;;;1.37;;
8640;SDS011;4358;42.100;25.222;2022-10-17T13:47:48;3.80;;;1.60;;
8640;SDS011;4358;42.100;25.222;2022-10-17T13:50:24;1.23;;;1.13;;
8640;SDS011;4358;42.100;25.222;2022-10-17T13:53:04;1.80;;;1.47;;
8640;SDS011;4358;42.100;25.222;2022-10-17T13:55:32;2.30;;;1.70;;
8640;SDS011;4358;42.100;25.222;2022-10-17T13:58:08;1.77;;;1.60;;
8640;SDS011;4358;42.100;25.222;2022-10-17T14:00:35;2.43;;;1.40;;
8640;SDS011;4358;42.100;25.222;2022-10-17T14:03:03;1.70;;;1.60;;
8640;SDS011;4358;42.100;25.222;2022-10-17T14:05:31;4.47;;;1.60;;
8640;SDS011;4358;42.100;25.222;2022-10-17T14:07:59;1.40;;;1.30;;
8640;SDS011;4358;42.100;25.222;2022-10-17T14:10:29;2.13;;;1.53;;
8640;SDS011;4358;42.100;25.222;2022-10-17T14:12:57;1.73;;;1.47;;
8640;SDS011;4358;42.100;25.222;2022-10-17T14:15:26;1.60;;;1.50;;
8640;SDS011;4358;42.100;25.222;2022-10-17T14:17:56;2.63;;;1.60;;
8640;SDS011;4358;42.100;25.222;2022-10-17T14:20:25;2.20;;;1.80;;
8640;SDS011;4358;42.100;25.222;2022-10-17T14:22:55;5.20;;;1.80;;
8640;SDS011;4358;42.100;25.222;2022-10-17T14:25:26;1.93;;;1.30;;
8640;SDS011;4358;42.100;25.222;2022-10-17T14:27:55;4.07;;;1.67;;
8640;SDS011;4358;42.100;25.222;2022-10-17T14:30:31;3.40;;;1.80;;
8640;SDS011;4358;42.100;25.222;2022-10-17T14:33:00;3.17;;;2.00;;
8640;SDS011;4358;42.100;25.222;2022-10-17T14:35:31;1.90;;;1.67;;
8640;SDS011;4358;42.100;25.222;2022-10-17T14:38:00;1.77;;;1.63;;
8640;SDS011;4358;42.100;25.222;2022-10-17T14:40:29;2.33;;;1.70;;
8640;SDS011;4358;42.100;25.222;2022-10-17T14:42:58;2.57;;;1.70;;
8640;SDS011;4358;42.100;25.222;2022-10-17T14:45:29;1.53;;;1.40;;
8640;SDS011;4358;42.100;25.222;2022-10-17T14:47:59;2.07;;;1.70;;
8640;SDS011;4358;42.100;25.222;2022-10-17T14:50:29;1.87;;;1.70;;
8640;SDS011;4358;42.100;25.222;2022-10-17T14:52:59;2.90;;;2.47;;
8640;SDS011;4358;42.100;25.222;2022-10-17T14:55:29;2.87;;;2.10;;
8640;SDS011;4358;42.100;25.222;2022-10-17T14:57:57;3.20;;;1.87;;
8640;SDS011;4358;42.100;25.222;2022-10-17T15:00:24;3.27;;;2.70;;
8640;SDS011;4358;42.100;25.222;2022-10-17T15:02:52;3.93;;;1.70;;
8640;SDS011;4358;42.100;25.222;2022-10-17T15:05:20;3.30;;;1.67;;
8640;SDS011;4358;42.100;25.222;2022-10-17T15:07:49;1.70;;;1.60;;
8640;SDS011;4358;42.100;25.222;2022-10-17T15:10:25;1.90;;;1.50;;
8640;SDS011;4358;42.100;25.222;2022-10-17T15:12:56;1.97;;;1.77;;
8640;SDS011;4358;42.100;25.222;2022-10-17T15:15:24;4.90;;;2.00;;
8640;SDS011;4358;42.100;25.222;2022-10-17T15:17:51;2.90;;;1.57;;
8640;SDS011;4358;42.100;25.222;2022-10-17T15:20:18;4.37;;;1.60;;
8640;SDS011;4358;42.100;25.222;2022-10-17T15:22:45;1.70;;;1.60;;
8640;SDS011;4358;42.100;25.222;2022-10-17T15:25:12;1.60;;;1.50;;
8640;SDS011;4358;42.100;25.222;2022-10-17T15:27:40;2.63;;;1.60;;
8640;SDS011;4358;42.100;25.222;2022-10-17T15:30:11;4.43;;;1.47;;
8640;SDS011;4358;42.100;25.222;2022-10-17T15:32:43;2.40;;;1.40;;
8640;SDS011;4358;42.100;25.222;2022-10-17T15:35:10;2.57;;;1.57;;
8640;SDS011;4358;42.100;25.222;2022-10-17T15:37:37;4.30;;;2.53;;
8640;SDS011;4358;42.100;25.222;2022-10-17T15:40:05;3.70;;;2.03;;
8640;SDS011;4358;42.100;25.222;2022-10-17T15:42:32;5.30;;;2.47;;
8640;SDS011;4358;42.100;25.222;2022-10-17T15:45:00;2.80;;;2.07;;
8640;SDS011;4358;42.100;25.222;2022-10-17T15:47:29;5.17;;;2.63;;
8640;SDS011;4358;42.100;25.222;2022-10-17T15:49:58;4.90;;;2.90;;
8640;SDS011;4358;42.100;25.222;2022-10-17T15:52:25;7.10;;;2.00;;
8640;SDS011;4358;42.100;25.222;2022-10-17T15:54:53;5.00;;;2.73;;
8640;SDS011;4358;42.100;25.222;2022-10-17T15:57:20;5.17;;;3.10;;
8640;SDS011;4358;42.100;25.222;2022-10-17T15:59:50;4.17;;;2.70;;
8640;SDS011;4358;42.100;25.222;2022-10-17T16:02:19;7.33;;;3.37;;
8640;SDS011;4358;42.100;25.222;2022-10-17T16:04:48;5.93;;;3.33;;
8640;SDS011;4358;42.100;25.222;2022-10-17T16:07:15;7.97;;;3.37;;
8640;SDS011;4358;42.100;25.222;2022-10-17T16:09:42;3.67;;;3.03;;
8640;SDS011;4358;42.100;25.222;2022-10-17T16:12:10;4.53;;;2.70;;
8640;SDS011;4358;42.100;25.222;2022-10-17T16:14:38;4.57;;;2.63;;
8640;SDS011;4358;42.100;25.222;2022-10-17T16:17:07;3.57;;;2.10;;
8640;SDS011;4358;42.100;25.222;2022-10-17T16:19:37;2.03;;;1.40;;
8640;SDS011;4358;42.100;25.222;2022-10-17T16:22:04;7.60;;;2.23;;
8640;SDS011;4358;42.100;25.222;2022-10-17T16:24:32;5.13;;;1.90;;
8640;SDS011;4358;42.100;25.222;2022-10-17T16:26:59;2.53;;;2.10;;
8640;SDS011;4358;42.100;25.222;2022-10-17T16:29:25;3.77;;;1.93;;
8640;SDS011;4358;42.100;25.222;2022-10-17T16:31:52;3.70;;;2.07;;
8640;SDS011;4358;42.100;25.222;2022-10-17T16:34:19;2.80;;;1.97;;
8640;SDS011;4358;42.100;25.222;2022-10-17T16:36:47;4.60;;;2.10;;
8640;SDS011;4358;42.100;25.222;2022-10-17T16:39:14;5.30;;;3.37;;
8640;SDS011;4358;42.100;25.222;2022-10-17T16:41:41;3.10;;;2.30;;
8640;SDS011;4358;42.100;25.222;2022-10-17T16:44:10;5.03;;;3.10;;
8640;SDS011;4358;42.100;25.222;2022-10-17T16:46:38;7.70;;;4.43;;
8640;SDS011;4358;42.100;25.222;2022-10-17T16:49:05;6.70;;;3.90;;
8640;SDS011;4358;42.100;25.222;2022-10-17T16:51:33;4.20;;;3.43;;
8640;SDS011;4358;42.100;25.222;2022-10-17T16:54:02;4.10;;;2.67;;
8640;SDS011;4358;42.100;25.222;2022-10-17T16:56:29;9.43;;;3.40;;
8640;SDS011;4358;42.100;25.222;2022-10-17T16:58:57;7.47;;;3.73;;
8640;SDS011;4358;42.100;25.222;2022-10-17T17:01:24;6.87;;;3.47;;
8640;SDS011;4358;42.100;25.222;2022-10-17T17:03:53;8.90;;;4.77;;
8640;SDS011;4358;42.100;25.222;2022-10-17T17:06:21;8.50;;;3.70;;
8640;SDS011;4358;42.100;25.222;2022-10-17T17:08:50;6.93;;;4.33;;
8640;SDS011;4358;42.100;25.222;2022-10-17T17:11:19;9.57;;;4.37;;
8640;SDS011;4358;42.100;25.222;2022-10-17T17:13:47;5.80;;;4.17;;
8640;SDS011;4358;42.100;25.222;2022-10-17T17:16:15;7.10;;;4.10;;
8640;SDS011;4358;42.100;25.222;2022-10-17T17:18:45;7.43;;;4.20;;
8640;SDS011;4358;42.100;25.222;2022-10-17T17:21:13;5.77;;;3.23;;
8640;SDS011;4358;42.100;25.222;2022-10-17T17:23:41;4.83;;;3.00;;
8640;SDS011;4358;42.100;25.222;2022-10-17T17:26:09;3.73;;;2.80;;
8640;SDS011;4358;42.100;25.222;2022-10-17T17:28:38;5.97;;;3.00;;
8640;SDS011;4358;42.100;25.222;2022-10-17T17:31:07;3.93;;;2.73;;
8640;SDS011;4358;42.100;25.222;2022-10-17T17:33:35;2.97;;;2.30;;
8640;SDS011;4358;42.100;25.222;2022-10-17T17:36:03;4.23;;;2.37;;
8640;SDS011;4358;42.100;25.222;2022-10-17T17:38:30;3.87;;;2.60;;
8640;SDS011;4358;42.100;25.222;2022-10-17T17:40:59;6.93;;;2.80;;
8640;SDS011;4358;42.100;25.222;2022-10-17T17:43:27;3.37;;;2.20;;
8640;SDS011;4358;42.100;25.222;2022-10-17T17:45:55;2.47;;;2.27;;
8640;SDS011;4358;42.100;25.222;2022-10-17T17:48:22;3.10;;;2.40;;
8640;SDS011;4358;42.100;25.222;2022-10-17T17:50:49;3.60;;;2.23;;
8640;SDS011;4358;42.100;25.222;2022-10-17T17:53:16;4.53;;;2.30;;
8640;SDS011;4358;42.100;25.222;2022-10-17T17:55:43;4.27;;;2.67;;
8640;SDS011;4358;42.100;25.222;2022-10-17T17:58:10;3.03;;;2.63;;
8640;SDS011;4358;42.100;25.222;2022-10-17T18:00:37;5.87;;;3.73;;
8640;SDS011;4358;42.100;25.222;2022-10-17T18:03:06;4.07;;;3.17;;
8640;SDS011;4358;42.100;25.222;2022-10-17T18:05:33;4.87;;;3.53;;
8640;SDS011;4358;42.100;25.222;2022-10-17T18:08:00;5.43;;;4.30;;
8640;SDS011;4358;42.100;25.222;2022-10-17T18:10:28;4.83;;;3.80;;
8640;SDS011;4358;42.100;25.222;2022-10-17T18:12:55;4.27;;;3.57;;
8640;SDS011;4358;42.100;25.222;2022-10-17T18:15:22;4.73;;;3.23;;
8640;SDS011;4358;42.100;25.222;2022-10-17T18:17:49;6.87;;;5.97;;
8640;SDS011;4358;42.100;25.222;2022-10-17T18:20:17;11.67;;;7.00;;
8640;SDS011;4358;42.100;25.222;2022-10-17T18:22:44;10.03;;;7.73;;
8640;SDS011;4358;42.100;25.222;2022-10-17T18:25:11;9.60;;;7.60;;
8640;SDS011;4358;42.100;25.222;2022-10-17T18:27:37;8.33;;;6.37;;
8640;SDS011;4358;42.100;25.222;2022-10-17T18:30:05;6.27;;;4.90;;
8640;SDS011;4358;42.100;25.222;2022-10-17T18:32:32;9.37;;;4.57;;
8640;SDS011;4358;42.100;25.222;2022-10-17T18:34:59;6.33;;;4.17;;
8640;SDS011;4358;42.100;25.222;2022-10-17T18:37:27;6.47;;;3.93;;
8640;SDS011;4358;42.100;25.222;2022-10-17T18:39:54;6.63;;;2.80;;
8640;SDS011;4358;42.100;25.222;2022-10-17T18:42:21;4.40;;;3.20;;
8640;SDS011;4358;42.100;25.222;2022-10-17T18:44:48;4.23;;;3.10;;
8640;SDS011;4358;42.100;25.222;2022-10-17T18:47:15;4.00;;;2.70;;
8640;SDS011;4358;42.100;25.222;2022-10-17T18:49:42;3.57;;;2.50;;
8640;SDS011;4358;42.100;25.222;2022-10-17T18:52:09;3.87;;;2.50;;
8640;SDS011;4358;42.100;25.222;2022-10-17T18:54:38;4.57;;;2.30;;
8640;SDS011;4358;42.100;25.222;2022-10-17T18:57:05;3.13;;;2.67;;
8640;SDS011;4358;42.100;25.222;2022-10-17T18:59:32;3.43;;;2.50;;
8640;SDS011;4358;42.100;25.222;2022-10-17T19:01:59;3.17;;;2.43;;
8640;SDS011;4358;42.100;25.222;2022-10-17T19:04:26;3.83;;;3.10;;
8640;SDS011;4358;42.100;25.222;2022-10-17T19:06:53;6.20;;;3.37;;
8640;SDS011;4358;42.100;25.222;2022-10-17T19:09:20;6.20;;;3.23;;
8640;SDS011;4358;42.100;25.222;2022-10-17T19:11:48;3.80;;;3.10;;
8640;SDS011;4358;42.100;25.222;2022-10-17T19:14:15;5.73;;;2.80;;
8640;SDS011;4358;42.100;25.222;2022-10-17T19:16:42;3.60;;;2.50;;
8640;SDS011;4358;42.100;25.222;2022-10-17T19:19:11;4.83;;;2.67;;
8640;SDS011;4358;42.100;25.222;2022-10-17T19:21:39;3.53;;;2.50;;
8640;SDS011;4358;42.100;25.222;2022-10-17T19:24:09;5.33;;;2.70;;
8640;SDS011;4358;42.100;25.222;2022-10-17T19:26:38;5.33;;;3.23;;
8640;SDS011;4358;42.100;25.222;2022-10-17T19:29:07;4.90;;;2.37;;
8640;SDS011;4358;42.100;25.222;2022-10-17T19:31:35;3.07;;;2.17;;
8640;SDS011;4358;42.100;25.222;2022-10-17T19:34:02;4.13;;;2.47;;
8640;SDS011;4358;42.100;25.222;2022-10-17T19:36:30;3.43;;;2.40;;
8640;SDS011;4358;42.100;25.222;2022-10-17T19:38:59;3.67;;;2.50;;
8640;SDS011;4358;42.100;25.222;2022-10-17T19:41:26;6.67;;;2.90;;
8640;SDS011;4358;42.100;25.222;2022-10-17T19:43:53;3.90;;;3.00;;
8640;SDS011;4358;42.100;25.222;2022-10-17T19:46:22;4.83;;;2.83;;
8640;SDS011;4358;42.100;25.222;2022-10-17T19:48:50;4.87;;;3.70;;
8640;SDS011;4358;42.100;25.222;2022-10-17T19:51:18;4.47;;;3.07;;
8640;SDS011;4358;42.100;25.222;2022-10-17T19:53:48;4.20;;;2.93;;
8640;SDS011;4358;42.100;25.222;2022-10-17T19:56:15;8.00;;;2.70;;
8640;SDS011;4358;42.100;25.222;2022-10-17T19:58:43;8.23;;;2.40;;
8640;SDS011;4358;42.100;25.222;2022-10-17T20:01:11;4.63;;;2.83;;
8640;SDS011;4358;42.100;25.222;2022-10-17T20:03:40;5.13;;;2.33;;
8640;SDS011;4358;42.100;25.222;2022-10-17T20:06:08;3.13;;;1.97;;
8640;SDS011;4358;42.100;25.222;2022-10-17T20:08:35;5.17;;;2.50;;
8640;SDS011;4358;42.100;25.222;2022-10-17T20:11:03;3.00;;;2.00;;
8640;SDS011;4358;42.100;25.222;2022-10-17T20:13:31;2.57;;;1.87;;
8640;SDS011;4358;42.100;25.222;2022-10-17T20:16:00;2.67;;;1.97;;
8640;SDS011;4358;42.100;25.222;2022-10-17T20:18:28;6.03;;;2.23;;
8640;SDS011;4358;42.100;25.222;2022-10-17T20:21:00;2.63;;;1.60;;
8640;SDS011;4358;42.100;25.222;2022-10-17T20:23:28;2.90;;;1.97;;
8640;SDS011;4358;42.100;25.222;2022-10-17T20:25:58;2.77;;;1.90;;
8640;SDS011;4358;42.100;25.222;2022-10-17T20:28:27;2.93;;;1.80;;
8640;SDS011;4358;42.100;25.222;2022-10-17T20:30:54;1.83;;;1.30;;
8640;SDS011;4358;42.100;25.222;2022-10-17T20:33:21;7.70;;;1.80;;
8640;SDS011;4358;42.100;25.222;2022-10-17T20:35:48;4.73;;;2.00;;
8640;SDS011;4358;42.100;25.222;2022-10-17T20:38:16;2.10;;;1.63;;
8640;SDS011;4358;42.100;25.222;2022-10-17T20:40:43;1.73;;;1.50;;
8640;SDS011;4358;42.100;25.222;2022-10-17T20:43:10;1.60;;;1.50;;
8640;SDS011;4358;42.100;25.222;2022-10-17T20:45:39;3.93;;;1.60;;
8640;SDS011;4358;42.100;25.222;2022-10-17T20:48:08;1.97;;;1.73;;
8640;SDS011;4358;42.100;25.222;2022-10-17T20:50:38;1.97;;;1.50;;
8640;SDS011;4358;42.100;25.222;2022-10-17T20:53:05;4.73;;;2.10;;
8640;SDS011;4358;42.100;25.222;2022-10-17T20:55:33;2.73;;;1.67;;
8640;SDS011;4358;42.100;25.222;2022-10-17T20:58:00;3.20;;;2.00;;
8640;SDS011;4358;42.100;25.222;2022-10-17T21:00:27;4.50;;;2.17;;
8640;SDS011;4358;42.100;25.222;2022-10-17T21:02:54;6.00;;;2.50;;
8640;SDS011;4358;42.100;25.222;2022-10-17T21:05:20;4.87;;;2.43;;
8640;SDS011;4358;42.100;25.222;2022-10-17T21:07:47;5.93;;;2.73;;
8640;SDS011;4358;42.100;25.222;2022-10-17T21:10:14;5.50;;;2.30;;
8640;SDS011;4358;42.100;25.222;2022-10-17T21:12:43;2.80;;;1.60;;
8640;SDS011;4358;42.100;25.222;2022-10-17T21:15:10;2.50;;;1.77;;
8640;SDS011;4358;42.100;25.222;2022-10-17T21:17:36;2.67;;;1.70;;
8640;SDS011;4358;42.100;25.222;2022-10-17T21:20:04;1.63;;;1.50;;
8640;SDS011;4358;42.100;25.222;2022-10-17T21:22:31;2.33;;;1.90;;
8640;SDS011;4358;42.100;25.222;2022-10-17T21:24:59;2.93;;;1.80;;
8640;SDS011;4358;42.100;25.222;2022-10-17T21:27:26;5.83;;;3.03;;
8640;SDS011;4358;42.100;25.222;2022-10-17T21:29:54;4.53;;;2.67;;
8640;SDS011;4358;42.100;25.222;2022-10-17T21:32:21;2.90;;;2.30;;
8640;SDS011;4358;42.100;25.222;2022-10-17T21:34:47;3.13;;;1.70;;
8640;SDS011;4358;42.100;25.222;2022-10-17T21:37:14;2.07;;;1.80;;
8640;SDS011;4358;42.100;25.222;2022-10-17T21:39:41;3.03;;;1.77;;
8640;SDS011;4358;42.100;25.222;2022-10-17T21:42:08;3.13;;;2.17;;
8640;SDS011;4358;42.100;25.222;2022-10-17T21:44:35;2.07;;;1.77;;
8640;SDS011;4358;42.100;25.222;2022-10-17T21:47:03;2.33;;;1.60;;
8640;SDS011;4358;42.100;25.222;2022-10-17T21:49:30;2.27;;;1.40;;
8640;SDS011;4358;42.100;25.222;2022-10-17T21:51:58;3.37;;;1.73;;
8640;SDS011;4358;42.100;25.222;2022-10-17T21:54:27;3.07;;;2.17;;
8640;SDS011;4358;42.100;25.222;2022-10-17T21:56:54;6.50;;;2.13;;
8640;SDS011;4358;42.100;25.222;2022-10-17T21:59:21;3.17;;;2.00;;
8640;SDS011;4358;42.100;25.222;2022-10-17T22:01:48;3.17;;;2.40;;
8640;SDS011;4358;42.100;25.222;2022-10-17T22:04:16;2.60;;;1.80;;
8640;SDS011;4358;42.100;25.222;2022-10-17T22:06:45;4.13;;;1.80;;
8640;SDS011;4358;42.100;25.222;2022-10-17T22:09:15;3.73;;;1.60;;
8640;SDS011;4358;42.100;25.222;2022-10-17T22:11:44;2.47;;;1.70;;
8640;SDS011;4358;42.100;25.222;2022-10-17T22:14:13;2.13;;;1.57;;
8640;SDS011;4358;42.100;25.222;2022-10-17T22:16:41;2.33;;;1.50;;
8640;SDS011;4358;42.100;25.222;2022-10-17T22:19:09;2.60;;;1.70;;
8640;SDS011;4358;42.100;25.222;2022-10-17T22:21:38;5.70;;;2.00;;
8640;SDS011;4358;42.100;25.222;2022-10-17T22:24:06;3.00;;;2.03;;
8640;SDS011;4358;42.100;25.222;2022-10-17T22:26:34;1.83;;;1.70;;
8640;SDS011;4358;42.100;25.222;2022-10-17T22:29:02;3.27;;;1.90;;
8640;SDS011;4358;42.100;25.222;2022-10-17T22:31:30;2.87;;;1.50;;
8640;SDS011;4358;42.100;25.222;2022-10-17T22:33:57;3.23;;;1.97;;
8640;SDS011;4358;42.100;25.222;2022-10-17T22:36:23;2.23;;;1.63;;
8640;SDS011;4358;42.100;25.222;2022-10-17T22:38:52;2.70;;;1.60;;
8640;SDS011;4358;42.100;25.222;2022-10-17T22:41:19;2.83;;;1.57;;
8640;SDS011;4358;42.100;25.222;2022-10-17T22:43:46;1.37;;;1.10;;
8640;SDS011;4358;42.100;25.222;2022-10-17T22:46:13;2.63;;;1.40;;
8640;SDS011;4358;42.100;25.222;2022-10-17T22:48:41;1.33;;;1.23;;
8640;SDS011;4358;42.100;25.222;2022-10-17T22:51:08;2.07;;;1.50;;
8640;SDS011;4358;42.100;25.222;2022-10-17T22:53:35;1.63;;;1.47;;
8640;SDS011;4358;42.100;25.222;2022-10-17T22:56:04;2.17;;;1.50;;
8640;SDS011;4358;42.100;25.222;2022-10-17T22:58:33;1.93;;;1.70;;
8640;SDS011;4358;42.100;25.222;2022-10-17T23:01:00;2.37;;;1.70;;
8640;SDS011;4358;42.100;25.222;2022-10-17T23:03:28;1.97;;;1.50;;
8640;SDS011;4358;42.100;25.222;2022-10-17T23:05:55;1.90;;;1.60;;
8640;SDS011;4358;42.100;25.222;2022-10-17T23:08:23;2.80;;;1.60;;
8640;SDS011;4358;42.100;25.222;2022-10-17T23:10:50;2.90;;;1.73;;
8640;SDS011;4358;42.100;25.222;2022-10-17T23:13:18;1.70;;;1.50;;
8640;SDS011;4358;42.100;25.222;2022-10-17T23:15:48;1.60;;;1.43;;
8640;SDS011;4358;42.100;25.222;2022-10-17T23:18:16;2.57;;;1.40;;
8640;SDS011;4358;42.100;25.222;2022-10-17T23:20:44;1.63;;;1.53;;
8640;SDS011;4358;42.100;25.222;2022-10-17T23:23:10;1.90;;;1.57;;
8640;SDS011;4358;42.100;25.222;2022-10-17T23:25:37;4.00;;;2.30;;
8640;SDS011;4358;42.100;25.222;2022-10-17T23:28:05;2.93;;;2.60;;
8640;SDS011;4358;42.100;25.222;2022-10-17T23:30:34;2.33;;;1.90;;
8640;SDS011;4358;42.100;25.222;2022-10-17T23:33:01;1.50;;;1.40;;
8640;SDS011;4358;42.100;25.222;2022-10-17T23:35:28;5.63;;;1.80;;
8640;SDS011;4358;42.100;25.222;2022-10-17T23:37:55;2.73;;;1.70;;
8640;SDS011;4358;42.100;25.222;2022-10-17T23:40:22;2.07;;;1.40;;
8640;SDS011;4358;42.100;25.222;2022-10-17T23:42:49;1.60;;;1.40;;
8640;SDS011;4358;42.100;25.222;2022-10-17T23:45:16;1.73;;;1.37;;
8640;SDS011;4358;42.100;25.222;2022-10-17T23:47:45;1.47;;;1.20;;
8640;SDS011;4358;42.100;25.222;2022-10-17T23:50:11;1.33;;;0.97;;
8640;SDS011;4358;42.100;25.222;2022-10-17T23:52:38;2.40;;;1.43;;
8640;SDS011;4358;42.100;25.222;2022-10-17T23:55:05;1.57;;;1.30;;
8640;SDS011;4358;42.100;25.222;2022-10-17T23:57:33;2.27;;;1.60;;
